Time;durP1;ratioP1;P1;durP2;ratioP2;P2;SDS_P1;SDS_P2;PMS_P1;PMS_P2;Temp;Humidity;BMP_temperature;BMP_pressure;BME280_temperature;BME280_humidity;BME280_pressure;Samples;Min_cycle;Max_cycle;Signal;HPM_P1;HPM_P2
2023/05/29 00:01:42;;;;;;;4.90;4.10;;;;;;;18.12;48.38;156019.88;5006733;28;20449;-76
2023/05/29 00:04:08;;;;;;;5.13;4.10;;;;;;;18.14;48.48;156023.75;5007481;28;20527;-76
2023/05/29 00:06:36;;;;;;;6.30;4.10;;;;;;;18.02;48.96;155992.53;4991102;28;20473;-76
2023/05/29 00:09:02;;;;;;;5.63;4.80;;;;;;;17.91;49.43;155963.88;5007326;28;20443;-76
2023/05/29 00:11:30;;;;;;;4.63;4.17;;;;;;;17.93;49.58;155970.38;5003647;28;20882;-76
2023/05/29 00:13:57;;;;;;;5.20;4.03;;;;;;;17.91;49.53;155965.16;5020401;28;20608;-76
2023/05/29 00:16:24;;;;;;;7.70;4.37;;;;;;;17.88;49.60;155957.34;5004167;28;20537;-76
2023/05/29 00:18:52;;;;;;;5.87;4.30;;;;;;;17.83;49.94;155944.34;5010438;28;20434;-76
2023/05/29 00:21:18;;;;;;;5.80;4.00;;;;;;;17.76;50.08;155926.13;4988861;28;20442;-77
2023/05/29 00:23:45;;;;;;;6.23;4.53;;;;;;;17.70;50.23;155910.50;4989155;28;20578;-76
2023/05/29 00:26:11;;;;;;;6.80;4.43;;;;;;;17.67;50.47;155901.38;4989117;28;20438;-76
2023/05/29 00:28:38;;;;;;;5.97;4.60;;;;;;;17.60;50.82;155884.47;4987340;28;20927;-76
2023/05/29 00:31:05;;;;;;;7.03;4.13;;;;;;;17.57;50.83;155876.66;5003659;28;20453;-77
2023/05/29 00:33:31;;;;;;;4.70;3.50;;;;;;;17.53;50.36;155866.22;5020299;28;20904;-76
2023/05/29 00:36:00;;;;;;;5.83;4.17;;;;;;;17.49;50.61;155855.78;4987006;28;20457;-77
2023/05/29 00:38:26;;;;;;;5.23;4.50;;;;;;;17.41;51.40;155834.94;5000488;28;20438;-76
2023/05/29 00:40:53;;;;;;;9.50;4.97;;;;;;;17.33;51.90;155814.13;5000675;28;20451;-76
2023/05/29 00:43:20;;;;;;;5.00;4.40;;;;;;;17.21;52.42;155782.91;4991653;28;20459;-76
2023/05/29 00:45:46;;;;;;;5.73;4.30;;;;;;;17.16;52.34;155769.84;5006849;28;20443;-76
2023/05/29 00:48:13;;;;;;;6.07;4.47;;;;;;;17.23;52.29;155789.41;5006821;28;20468;-76
2023/05/29 00:50:40;;;;;;;4.63;3.90;;;;;;;17.13;52.84;155762.06;5038569;28;20657;-76
2023/05/29 00:53:09;;;;;;;4.77;3.60;;;;;;;17.12;52.81;155759.47;4985112;28;20881;-76
2023/05/29 00:55:36;;;;;;;4.83;3.70;;;;;;;17.09;52.96;155751.63;5000288;28;20477;-76
2023/05/29 00:58:02;;;;;;;5.80;4.40;;;;;;;17.04;53.30;155741.25;4984222;28;20434;-76
2023/05/29 01:00:30;;;;;;;4.80;4.30;;;;;;;16.99;53.47;155728.25;5000440;28;20457;-76
2023/05/29 01:02:58;;;;;;;9.57;4.30;;;;;;;16.94;53.57;155713.94;4968657;28;20451;-76
2023/05/29 01:05:24;;;;;;;6.07;4.63;;;;;;;16.82;54.24;155684.00;5004309;28;20961;-76
2023/05/29 01:07:51;;;;;;;6.43;4.70;;;;;;;16.81;54.31;155681.38;5004012;28;20490;-76
2023/05/29 01:10:19;;;;;;;6.83;4.30;;;;;;;16.69;54.51;155650.16;5004524;28;21006;-76
2023/05/29 01:13:00;;;;;;;6.73;4.80;;;;;;;16.65;54.89;155639.78;4987882;28;20442;-76
2023/05/29 01:15:34;;;;;;;5.57;4.17;;;;;;;16.65;55.00;155638.47;5023618;28;20453;-76
2023/05/29 01:18:09;;;;;;;7.07;4.50;;;;;;;16.57;55.11;155618.97;5007524;28;20450;-76
2023/05/29 01:20:41;;;;;;;4.63;3.60;;;;;;;16.50;55.46;155599.38;5023434;28;21043;-76
2023/05/29 01:23:22;;;;;;;6.13;4.73;;;;;;;16.51;55.33;155603.28;5007250;28;20438;-76
2023/05/29 01:26:08;;;;;;;5.50;4.23;;;;;;;16.41;55.82;155577.28;4983252;28;20462;-76
2023/05/29 01:28:41;;;;;;;7.20;5.10;;;;;;;16.37;56.42;155568.16;4996005;28;21226;-76
2023/05/29 01:31:08;;;;;;;5.10;4.50;;;;;;;16.31;56.47;155552.56;4992359;28;20433;-76
2023/05/29 01:33:35;;;;;;;8.37;4.30;;;;;;;16.38;55.94;155569.47;4990888;28;20461;-76
2023/05/29 01:36:01;;;;;;;4.77;4.17;;;;;;;16.34;56.21;155560.34;5022888;28;20442;-76
2023/05/29 01:38:28;;;;;;;5.50;4.50;;;;;;;16.26;56.47;155539.56;4990643;28;20805;-76
2023/05/29 01:40:55;;;;;;;6.50;4.37;;;;;;;16.22;56.73;155529.16;4974310;28;20502;-76
2023/05/29 01:43:21;;;;;;;7.50;5.13;;;;;;;16.13;57.14;155504.44;5001936;28;20469;-76
2023/05/29 01:45:51;;;;;;;5.93;4.40;;;;;;;16.05;56.91;155483.63;5003586;28;20454;-76
2023/05/29 01:48:18;;;;;;;6.70;4.60;;;;;;;16.00;57.08;155471.94;4986794;28;20812;-76
2023/05/29 01:50:45;;;;;;;5.33;4.20;;;;;;;15.94;57.52;155456.31;4995069;28;20452;-76
2023/05/29 01:53:12;;;;;;;11.33;5.50;;;;;;;15.87;57.46;155436.81;5023206;28;20448;-76
2023/05/29 01:55:38;;;;;;;5.30;4.57;;;;;;;15.87;57.47;155438.13;4990048;28;20446;-76
2023/05/29 01:58:05;;;;;;;4.90;4.07;;;;;;;15.84;57.96;155430.31;4990208;28;20444;-76
2023/05/29 02:00:32;;;;;;;6.50;4.23;;;;;;;15.78;58.42;155416.03;4989358;28;20813;-76
2023/05/29 02:03:00;;;;;;;5.93;4.07;;;;;;;15.71;58.44;155396.53;4990368;28;20449;-76
2023/05/29 02:05:27;;;;;;;5.97;4.63;;;;;;;15.63;59.08;155375.72;5006440;28;20523;-76
2023/05/29 02:07:53;;;;;;;6.50;4.70;;;;;;;15.55;59.20;155356.25;4989819;28;20477;-76
2023/05/29 02:10:20;;;;;;;4.80;4.23;;;;;;;15.48;59.39;155336.75;5006204;28;20480;-76
2023/05/29 02:12:47;;;;;;;5.63;4.50;;;;;;;15.45;59.50;155330.19;4991582;28;20441;-76
2023/05/29 02:15:13;;;;;;;6.83;4.53;;;;;;;15.45;59.72;155330.19;4971821;28;20450;-76
2023/05/29 02:17:41;;;;;;;6.43;4.80;;;;;;;15.47;59.68;155335.44;4997107;28;21027;-76
2023/05/29 02:20:10;;;;;;;5.70;4.57;;;;;;;15.44;59.50;155327.59;5003720;28;20481;-76
2023/05/29 02:22:37;;;;;;;6.20;4.80;;;;;;;15.46;59.99;155331.56;4971919;28;20553;-76
2023/05/29 02:25:04;;;;;;;6.50;4.40;;;;;;;15.44;59.74;155326.28;4970312;28;20454;-76
2023/05/29 02:27:30;;;;;;;8.90;4.30;;;;;;;15.38;60.13;155310.72;4986438;28;20485;-76
2023/05/29 02:29:58;;;;;;;4.97;3.90;;;;;;;15.32;60.21;155295.09;4970353;28;20465;-76
2023/05/29 02:32:25;;;;;;;6.10;4.13;;;;;;;15.32;60.36;155296.41;4970519;28;20459;-76
2023/05/29 02:34:52;;;;;;;7.47;4.63;;;;;;;15.22;60.02;155270.44;4971906;28;20462;-76
2023/05/29 02:37:25;;;;;;;6.57;4.37;;;;;;;15.15;60.95;155252.22;4986391;28;20485;-76
2023/05/29 02:39:51;;;;;;;4.67;4.17;;;;;;;15.07;60.75;155231.41;4971383;28;20438;-76
2023/05/29 02:42:18;;;;;;;6.13;5.03;;;;;;;15.04;60.75;155223.63;4970124;28;20455;-76
2023/05/29 02:44:44;;;;;;;4.30;3.90;;;;;;;14.98;60.85;155209.38;4978346;28;20450;-76
2023/05/29 02:47:11;;;;;;;4.90;4.40;;;;;;;15.04;60.98;155224.94;5008658;28;20447;-76
2023/05/29 02:49:37;;;;;;;5.20;3.97;;;;;;;15.00;60.88;155214.56;5009080;28;20449;-76
2023/05/29 02:52:04;;;;;;;5.23;4.47;;;;;;;14.91;61.05;155191.16;4974441;28;20457;-76
2023/05/29 02:54:32;;;;;;;7.00;4.80;;;;;;;14.88;60.99;155182.09;4998887;28;20791;-76
2023/05/29 02:56:59;;;;;;;6.73;4.30;;;;;;;14.82;61.53;155167.78;4989350;28;20446;-76
2023/05/29 02:59:25;;;;;;;4.17;3.63;;;;;;;14.75;61.67;155148.25;4989070;28;20964;-76
2023/05/29 03:01:52;;;;;;;6.10;4.33;;;;;;;14.80;61.73;155162.56;4989221;28;20514;-76
2023/05/29 03:04:19;;;;;;;5.63;4.50;;;;;;;14.82;61.48;155166.47;5005203;28;20451;-76
2023/05/29 03:06:45;;;;;;;7.20;5.00;;;;;;;14.75;61.47;155148.25;4989157;28;21023;-76
2023/05/29 03:09:13;;;;;;;4.73;3.33;;;;;;;14.69;61.63;155132.72;4987618;28;20475;-76
2023/05/29 03:11:41;;;;;;;5.93;4.30;;;;;;;14.62;61.51;155117.09;4988912;28;20431;-76
2023/05/29 03:14:07;;;;;;;5.40;4.43;;;;;;;14.51;61.92;155088.53;4997222;28;20460;-76
2023/05/29 03:16:34;;;;;;;5.50;4.10;;;;;;;14.50;62.38;155085.97;4991430;28;20453;-76
2023/05/29 03:19:00;;;;;;;4.97;4.40;;;;;;;14.53;62.38;155093.72;4992034;28;20452;-76
2023/05/29 03:21:27;;;;;;;6.10;4.00;;;;;;;14.51;62.38;155088.53;5000347;28;21040;-76
2023/05/29 03:23:53;;;;;;;6.13;4.03;;;;;;;14.56;63.07;155101.50;5011602;28;20436;-76
2023/05/29 03:26:21;;;;;;;4.60;3.70;;;;;;;14.68;62.66;155130.09;4990512;28;20541;-76
2023/05/29 03:28:50;;;;;;;8.17;5.00;;;;;;;14.71;62.65;155137.91;4991257;28;21039;-76
2023/05/29 03:31:16;;;;;;;6.80;4.20;;;;;;;14.70;62.75;155135.28;5008215;28;20909;-76
2023/05/29 03:33:43;;;;;;;9.80;4.50;;;;;;;14.75;62.24;155148.25;4991760;28;20434;-76
2023/05/29 03:36:19;;;;;;;5.30;4.13;;;;;;;14.74;61.77;155145.69;5008111;28;20469;-76
2023/05/29 03:38:45;;;;;;;5.40;4.60;;;;;;;14.73;62.04;155144.38;4991637;28;20433;-76
2023/05/29 03:41:12;;;;;;;5.60;4.50;;;;;;;14.71;62.60;155137.91;4990861;28;20453;-76
2023/05/29 03:43:39;;;;;;;4.50;4.03;;;;;;;14.68;62.72;155131.41;4975528;28;20458;-76
2023/05/29 03:46:07;;;;;;;8.53;4.40;;;;;;;14.75;62.75;155149.56;4987997;28;20442;-76
2023/05/29 03:48:35;;;;;;;6.10;4.77;;;;;;;14.87;62.70;155179.47;4971596;28;20501;-76
2023/05/29 03:51:02;;;;;;;5.50;4.63;;;;;;;14.84;62.88;155172.97;4972001;28;20609;-76
2023/05/29 03:53:34;;;;;;;5.73;4.13;;;;;;;14.84;63.30;155171.66;4970267;28;20443;-77
2023/05/29 03:56:01;;;;;;;5.40;4.90;;;;;;;14.82;63.25;155166.47;5004264;28;20540;-76
2023/05/29 03:58:27;;;;;;;5.57;4.43;;;;;;;14.81;63.60;155163.88;4990865;28;20450;-76
2023/05/29 04:00:54;;;;;;;7.30;4.40;;;;;;;14.74;63.53;155147.00;4991407;28;20460;-75
2023/05/29 04:03:22;;;;;;;6.63;4.53;;;;;;;14.71;64.11;155137.91;4975107;28;20982;-76
2023/05/29 04:05:49;;;;;;;7.70;4.77;;;;;;;14.73;63.13;155144.38;4991246;28;20449;-75
2023/05/29 04:08:16;;;;;;;5.83;4.07;;;;;;;14.82;63.05;155166.47;5008872;28;20472;-75
2023/05/29 04:10:43;;;;;;;5.67;4.70;;;;;;;14.83;63.68;155169.06;4987618;28;20591;-76
2023/05/29 04:13:09;;;;;;;7.40;4.50;;;;;;;14.79;64.09;155160.00;4971672;28;20434;-75
2023/05/29 04:15:37;;;;;;;6.67;4.47;;;;;;;14.77;64.37;155153.50;4987423;28;20465;-75
2023/05/29 04:18:03;;;;;;;5.27;4.67;;;;;;;14.79;65.14;155158.69;4988174;28;20449;-76
2023/05/29 04:20:32;;;;;;;6.93;4.37;;;;;;;14.84;64.70;155172.97;4987874;28;20509;-75
2023/05/29 04:22:58;;;;;;;5.17;4.20;;;;;;;15.01;64.62;155217.13;5004157;28;20458;-75
2023/05/29 04:25:25;;;;;;;9.23;5.53;;;;;;;15.11;65.22;155241.84;4987782;28;20450;-76
2023/05/29 04:27:52;;;;;;;7.30;5.53;;;;;;;15.30;65.14;155289.91;4987431;28;20485;-75
2023/05/29 04:30:20;;;;;;;6.50;4.87;;;;;;;15.46;64.43;155332.81;4987499;28;20456;-76
2023/05/29 04:32:48;;;;;;;7.10;4.70;;;;;;;15.56;64.21;155358.84;5019527;28;20452;-75
2023/05/29 04:35:15;;;;;;;5.37;4.43;;;;;;;15.74;63.62;155404.34;4987364;28;20457;-76
2023/05/29 04:37:53;;;;;;;9.40;5.13;;;;;;;15.86;63.30;155434.25;5003183;28;20442;-75
2023/05/29 04:40:20;;;;;;;9.33;4.50;;;;;;;16.01;63.16;155473.25;5004074;28;20461;-76
2023/05/29 04:42:47;;;;;;;5.00;4.50;;;;;;;16.24;62.13;155533.06;4987787;28;20506;-76
2023/05/29 04:45:15;;;;;;;5.57;5.07;;;;;;;16.27;62.47;155540.84;4994996;28;20547;-75
2023/05/29 04:47:43;;;;;;;5.20;4.60;;;;;;;16.37;62.29;155568.16;5023188;28;20468;-75
2023/05/29 04:50:12;;;;;;;6.53;5.30;;;;;;;16.44;61.83;155585.09;4986991;28;20446;-75
2023/05/29 04:52:39;;;;;;;7.47;4.73;;;;;;;16.60;61.61;155626.72;4994833;28;20454;-75
2023/05/29 04:55:10;;;;;;;6.27;4.90;;;;;;;16.73;61.29;155660.53;4971045;28;20453;-76
2023/05/29 04:57:37;;;;;;;4.90;4.20;;;;;;;16.87;60.52;155695.69;5003438;28;20465;-75
2023/05/29 05:00:08;;;;;;;6.80;5.17;;;;;;;16.93;60.27;155711.31;4987379;28;20899;-76
2023/05/29 05:02:37;;;;;;;8.73;5.47;;;;;;;17.00;59.91;155730.81;5003754;28;20465;-75
2023/05/29 05:05:04;;;;;;;7.70;4.83;;;;;;;17.09;59.47;155752.94;4987148;28;21034;-75
2023/05/29 05:07:31;;;;;;;8.40;5.10;;;;;;;17.18;59.70;155775.09;5002563;28;20442;-75
2023/05/29 05:09:58;;;;;;;6.60;4.67;;;;;;;17.31;59.23;155810.22;5006387;28;20489;-75
2023/05/29 05:12:28;;;;;;;6.40;4.57;;;;;;;17.47;59.87;155851.84;4990309;28;20823;-75
2023/05/29 05:14:55;;;;;;;5.60;4.80;;;;;;;17.66;57.00;155898.78;5006045;28;20484;-75
2023/05/29 05:17:22;;;;;;;7.30;4.90;;;;;;;17.79;57.52;155933.91;4970949;28;20448;-75
2023/05/29 05:19:49;;;;;;;6.40;4.90;;;;;;;17.83;58.77;155943.03;5003644;28;20442;-75
2023/05/29 05:22:16;;;;;;;5.20;4.70;;;;;;;18.00;58.92;155988.59;4989278;28;20496;-75
2023/05/29 05:24:43;;;;;;;6.97;5.10;;;;;;;18.17;58.58;156032.88;4993794;28;20609;-76
2023/05/29 05:27:10;;;;;;;6.10;4.67;;;;;;;18.41;58.16;156092.78;4970869;28;20863;-76
2023/05/29 05:29:38;;;;;;;7.37;5.20;;;;;;;18.62;57.38;156148.84;4984234;28;21295;-75
2023/05/29 05:32:05;;;;;;;5.80;4.73;;;;;;;18.69;57.17;156165.81;4970834;28;20442;-76
2023/05/29 05:34:32;;;;;;;7.70;5.20;;;;;;;18.85;56.56;156208.78;5003360;28;20464;-76
2023/05/29 05:36:59;;;;;;;5.50;5.00;;;;;;;19.01;57.36;156247.91;4987030;28;20477;-76
2023/05/29 05:39:25;;;;;;;6.23;5.20;;;;;;;19.16;55.81;156288.28;4986923;28;20464;-76
2023/05/29 05:41:52;;;;;;;7.10;5.30;;;;;;;19.25;56.02;156311.72;4971596;28;20454;-76
2023/05/29 05:44:38;;;;;;;5.73;5.00;;;;;;;19.35;55.77;156337.78;4986295;28;20449;-76
2023/05/29 05:47:09;;;;;;;8.27;6.07;;;;;;;19.52;55.29;156380.84;4973651;28;20445;-76
2023/05/29 05:49:37;;;;;;;6.23;4.70;;;;;;;19.56;54.62;156390.00;5009723;28;20926;-76
2023/05/29 05:52:03;;;;;;;5.97;5.13;;;;;;;19.53;55.46;156382.16;5030123;28;20514;-76
2023/05/29 05:54:30;;;;;;;8.40;5.70;;;;;;;19.66;54.73;156417.38;5016198;28;20539;-76
2023/05/29 05:56:57;;;;;;;5.70;5.17;;;;;;;19.72;54.69;156431.72;4990807;28;20557;-76
2023/05/29 05:59:24;;;;;;;5.13;4.07;;;;;;;19.88;54.53;156473.44;4989909;28;20454;-76
2023/05/29 06:01:52;;;;;;;9.30;5.63;;;;;;;19.98;53.90;156500.81;4973814;28;20499;-76
2023/05/29 06:04:19;;;;;;;5.30;4.50;;;;;;;20.17;54.91;156549.06;4990038;28;20453;-77
2023/05/29 06:06:46;;;;;;;5.73;5.13;;;;;;;20.34;53.51;156593.44;4990311;28;20449;-76
2023/05/29 06:09:13;;;;;;;4.70;4.20;;;;;;;20.54;54.19;156645.59;4973532;28;20481;-76
2023/05/29 06:11:40;;;;;;;6.33;5.70;;;;;;;20.78;53.19;156706.97;4990375;28;20524;-76
2023/05/29 06:14:07;;;;;;;5.90;5.37;;;;;;;20.84;53.29;156722.59;4992448;28;20449;-76
2023/05/29 06:16:34;;;;;;;5.70;5.10;;;;;;;20.87;53.12;156730.41;5009341;28;20437;-76
2023/05/29 06:19:02;;;;;;;5.73;4.70;;;;;;;20.90;53.15;156736.94;4992704;28;20865;-76
2023/05/29 06:21:31;;;;;;;8.87;5.60;;;;;;;20.82;52.80;156716.06;4992919;28;20427;-76
2023/05/29 06:23:58;;;;;;;7.33;4.97;;;;;;;20.78;53.44;156706.97;4976322;28;20495;-76
2023/05/29 06:26:26;;;;;;;8.07;5.93;;;;;;;20.78;53.24;156705.66;4976812;28;20451;-76
2023/05/29 06:28:54;;;;;;;7.40;5.70;;;;;;;20.96;53.63;156752.63;4989493;28;20500;-76
2023/05/29 06:31:20;;;;;;;6.20;5.20;;;;;;;20.96;51.40;156752.63;4990351;28;20468;-76
2023/05/29 06:33:47;;;;;;;6.10;5.50;;;;;;;20.78;51.33;156705.66;4989190;28;20453;-76
2023/05/29 06:36:16;;;;;;;6.70;5.33;;;;;;;20.70;51.42;156684.78;4973551;28;20434;-76
2023/05/29 06:38:47;;;;;;;6.53;4.70;;;;;;;20.60;50.84;156659.94;4972995;28;20953;-76
2023/05/29 06:41:13;;;;;;;6.70;4.87;;;;;;;20.54;50.44;156645.59;4989823;28;20465;-76
2023/05/29 06:43:40;;;;;;;5.97;5.13;;;;;;;20.51;51.19;156637.81;5005262;28;20507;-76
2023/05/29 06:46:09;;;;;;;5.50;4.73;;;;;;;20.70;51.39;156684.78;4973510;28;20437;-76
2023/05/29 06:48:35;;;;;;;9.00;5.67;;;;;;;20.73;50.81;156692.63;4995352;28;20477;-76
2023/05/29 06:51:08;;;;;;;8.93;5.33;;;;;;;20.87;50.87;156729.09;4976341;28;20462;-76
2023/05/29 06:53:42;;;;;;;6.57;5.40;;;;;;;20.86;51.08;156727.84;5008739;28;20527;-76
2023/05/29 06:56:10;;;;;;;7.60;6.10;;;;;;;21.15;50.10;156802.25;5009068;28;20449;-77
2023/05/29 06:58:37;;;;;;;7.27;5.23;;;;;;;21.52;50.33;156898.84;5008474;28;20793;-77
2023/05/29 07:01:04;;;;;;;5.50;4.37;;;;;;;21.81;49.27;156974.56;5025145;28;20438;-76
2023/05/29 07:03:32;;;;;;;5.57;4.90;;;;;;;21.89;47.30;156994.19;4992284;28;20468;-76
2023/05/29 07:05:59;;;;;;;8.43;5.07;;;;;;;21.71;47.53;156948.44;4991398;28;20766;-76
2023/05/29 07:08:26;;;;;;;7.20;5.53;;;;;;;21.83;48.43;156979.78;4992283;28;20974;-77
2023/05/29 07:10:54;;;;;;;6.70;5.53;;;;;;;21.72;46.83;156951.06;4988507;28;20584;-76
2023/05/29 07:13:21;;;;;;;7.50;5.40;;;;;;;21.43;47.12;156874.03;5004981;28;20442;-77
2023/05/29 07:15:49;;;;;;;7.60;4.90;;;;;;;21.50;48.08;156892.34;4972432;28;20820;-76
2023/05/29 07:18:16;;;;;;;6.00;5.40;;;;;;;21.71;46.56;156947.16;4972560;28;20451;-76
2023/05/29 07:20:43;;;;;;;5.23;4.73;;;;;;;21.32;46.95;156846.63;4988804;28;20438;-77
2023/05/29 07:23:12;;;;;;;6.57;5.00;;;;;;;21.23;47.66;156824.41;4988812;28;20446;-76
2023/05/29 07:25:39;;;;;;;5.30;4.40;;;;;;;21.16;47.93;156806.16;4998086;28;20449;-77
2023/05/29 07:28:07;;;;;;;6.20;4.73;;;;;;;21.11;47.64;156793.13;4989943;28;20450;-77
2023/05/29 07:30:33;;;;;;;6.90;5.40;;;;;;;21.09;48.28;156786.59;4988502;28;20478;-77
2023/05/29 07:33:00;;;;;;;6.10;4.93;;;;;;;21.43;48.54;156875.34;4989968;28;20850;-77
2023/05/29 07:35:27;;;;;;;7.27;5.60;;;;;;;21.76;47.54;156961.47;4972340;28;20461;-77
2023/05/29 07:37:54;;;;;;;5.40;4.23;;;;;;;21.96;47.06;157011.16;4987960;28;20442;-77
2023/05/29 07:40:22;;;;;;;5.90;5.30;;;;;;;22.16;47.33;157064.69;4987984;28;20877;-77
2023/05/29 07:43:09;;;;;;;5.87;5.27;;;;;;;22.33;47.22;157107.78;5021111;28;20796;-77
2023/05/29 07:45:49;;;;;;;6.20;5.60;;;;;;;22.22;47.29;157080.38;4988040;28;20462;-77
2023/05/29 07:48:16;;;;;;;8.10;5.83;;;;;;;22.01;46.97;157025.53;4987920;28;20446;-77
2023/05/29 07:50:43;;;;;;;6.47;5.60;;;;;;;21.93;46.83;157003.31;4987909;28;20493;-77
2023/05/29 07:53:09;;;;;;;5.70;5.03;;;;;;;21.74;47.04;156954.94;4972088;28;20449;-77
2023/05/29 07:55:38;;;;;;;5.90;5.30;;;;;;;22.05;46.95;157034.69;4989673;28;20457;-77
2023/05/29 07:58:05;;;;;;;8.17;5.50;;;;;;;22.11;45.93;157050.31;5003677;28;20880;-77
2023/05/29 08:00:33;;;;;;;5.37;4.70;;;;;;;22.20;45.19;157075.16;5004177;28;20449;-77
2023/05/29 08:03:02;;;;;;;5.00;4.50;;;;;;;22.21;44.91;157076.47;4988127;28;20522;-77
2023/05/29 08:05:32;;;;;;;6.30;5.10;;;;;;;22.12;45.19;157052.94;4989614;28;20545;-77
2023/05/29 08:08:01;;;;;;;5.97;5.30;;;;;;;22.09;45.36;157046.41;5003916;28;20437;-77
2023/05/29 08:10:28;;;;;;;5.63;4.63;;;;;;;22.02;46.28;157026.84;5000226;28;20477;-77
2023/05/29 08:12:54;;;;;;;5.50;4.77;;;;;;;21.97;46.08;157013.78;5006478;28;20468;-77
2023/05/29 08:15:22;;;;;;;5.40;4.90;;;;;;;21.96;46.56;157011.16;5006927;28;20948;-77
2023/05/29 08:17:50;;;;;;;5.77;5.10;;;;;;;22.01;46.86;157025.53;4991204;28;20804;-77
2023/05/29 08:20:17;;;;;;;5.50;5.00;;;;;;;22.10;47.37;157049.06;5007419;28;20487;-77
2023/05/29 08:22:44;;;;;;;7.77;4.70;;;;;;;22.14;47.00;157058.16;5008908;28;20506;-77
2023/05/29 08:25:10;;;;;;;6.00;5.20;;;;;;;22.20;47.14;157073.84;5008198;28;20828;-77
2023/05/29 08:27:37;;;;;;;6.60;5.10;;;;;;;22.44;46.47;157136.53;5023566;28;20518;-77
2023/05/29 08:30:04;;;;;;;7.03;5.80;;;;;;;22.61;45.48;157180.94;5007376;28;20481;-77
2023/05/29 08:32:30;;;;;;;6.07;5.27;;;;;;;22.36;45.61;157116.97;4987813;28;20426;-77
2023/05/29 08:34:59;;;;;;;6.43;4.97;;;;;;;22.52;45.95;157156.13;4987439;28;20450;-77
2023/05/29 08:37:25;;;;;;;6.77;5.40;;;;;;;22.67;46.35;157196.66;4987578;28;20477;-77
2023/05/29 08:39:52;;;;;;;6.10;4.90;;;;;;;23.07;45.00;157298.56;4987331;28;20806;-77
2023/05/29 08:42:22;;;;;;;6.53;5.10;;;;;;;22.72;44.60;157209.72;4988623;28;20426;-77
2023/05/29 08:44:50;;;;;;;5.30;4.70;;;;;;;22.75;45.84;157217.56;4989044;28;20448;-77
2023/05/29 08:47:20;;;;;;;7.20;5.27;;;;;;;22.94;45.47;157267.25;4988086;28;20441;-77
2023/05/29 08:49:54;;;;;;;6.30;4.97;;;;;;;22.72;46.23;157208.41;4987366;28;20473;-77
2023/05/29 08:52:24;;;;;;;5.60;5.07;;;;;;;22.82;45.97;157234.59;4987678;28;20428;-77
2023/05/29 08:54:52;;;;;;;8.03;5.57;;;;;;;22.88;47.05;157250.22;5003856;28;20492;-77
2023/05/29 08:57:19;;;;;;;5.77;5.17;;;;;;;22.93;45.24;157264.59;4987089;28;20445;-77
2023/05/29 08:59:46;;;;;;;5.77;5.17;;;;;;;22.92;45.39;157260.69;4987034;28;20541;-77
2023/05/29 09:02:12;;;;;;;6.57;5.33;;;;;;;23.08;46.30;157301.22;4988932;28;20512;-77
2023/05/29 09:04:39;;;;;;;6.20;5.60;;;;;;;23.00;45.13;157281.63;4994573;28;20457;-77
2023/05/29 09:07:08;;;;;;;6.00;5.27;;;;;;;22.87;46.38;157248.97;5023449;28;21057;-77
2023/05/29 09:09:37;;;;;;;6.47;5.70;;;;;;;22.97;47.08;157273.75;5003060;28;20474;-77
2023/05/29 09:12:04;;;;;;;6.60;5.73;;;;;;;22.85;46.45;157242.38;5019706;28;20442;-77
2023/05/29 09:14:35;;;;;;;7.53;5.33;;;;;;;22.62;47.26;157182.25;5003514;28;20449;-77
2023/05/29 09:17:03;;;;;;;5.97;5.40;;;;;;;22.39;48.96;157124.81;5020073;28;20438;-77
2023/05/29 09:19:30;;;;;;;6.50;5.60;;;;;;;22.46;48.27;157141.75;5003389;28;20541;-76
2023/05/29 09:22:01;;;;;;;7.37;5.57;;;;;;;22.31;49.38;157103.91;5002618;28;20508;-76
2023/05/29 09:24:28;;;;;;;7.13;5.80;;;;;;;22.52;49.55;157157.44;5020891;28;20528;-77
2023/05/29 09:26:57;;;;;;;5.17;4.67;;;;;;;22.65;47.99;157190.13;4999917;28;20445;-77
2023/05/29 09:29:24;;;;;;;6.03;5.00;;;;;;;22.56;47.34;157166.59;4987886;28;20508;-77
2023/05/29 09:31:51;;;;;;;6.20;4.93;;;;;;;22.61;47.18;157180.94;4992284;28;20441;-77
2023/05/29 09:34:18;;;;;;;7.40;4.83;;;;;;;22.75;46.78;157216.25;5023528;28;20477;-77
2023/05/29 09:36:45;;;;;;;5.30;4.80;;;;;;;22.61;47.82;157179.66;4990932;28;20442;-77
2023/05/29 09:39:14;;;;;;;10.90;5.20;;;;;;;22.72;47.60;157209.72;4991116;28;20464;-77
2023/05/29 09:41:42;;;;;;;5.23;4.60;;;;;;;22.53;48.22;157160.03;5006655;28;20484;-77
2023/05/29 09:44:13;;;;;;;6.30;5.10;;;;;;;22.55;48.29;157165.28;4992211;28;20453;-77
2023/05/29 09:46:39;;;;;;;7.17;6.03;;;;;;;22.98;48.97;157276.41;4992052;28;20882;-77
2023/05/29 09:49:11;;;;;;;5.30;4.73;;;;;;;23.39;46.76;157382.28;4990405;28;20457;-76
2023/05/29 09:51:39;;;;;;;6.10;5.10;;;;;;;23.37;47.10;157377.06;4973826;28;20564;-75
2023/05/29 09:54:15;;;;;;;6.40;5.80;;;;;;;23.10;47.16;157307.72;4991843;28;20445;-75
2023/05/29 09:56:43;;;;;;;6.17;5.30;;;;;;;22.99;48.54;157280.28;5009181;28;20445;-75
2023/05/29 09:59:12;;;;;;;7.00;5.63;;;;;;;22.89;48.79;157252.84;5008382;28;20965;-75
2023/05/29 10:01:41;;;;;;;5.93;5.33;;;;;;;23.15;48.04;157320.81;4991675;28;20949;-75
2023/05/29 10:04:09;;;;;;;9.23;5.17;;;;;;;23.17;47.13;157324.69;4991766;28;20458;-76
2023/05/29 10:06:36;;;;;;;6.80;5.40;;;;;;;23.14;47.51;157318.16;4991601;28;20450;-76
2023/05/29 10:09:03;;;;;;;7.40;5.03;;;;;;;23.19;47.55;157329.97;4991601;28;20449;-76
2023/05/29 10:11:31;;;;;;;6.83;4.80;;;;;;;23.24;46.68;157344.34;5022008;28;20485;-75
2023/05/29 10:13:58;;;;;;;5.33;4.80;;;;;;;23.26;46.98;157348.25;4990377;28;20472;-76
2023/05/29 10:16:26;;;;;;;10.70;5.60;;;;;;;23.24;46.39;157343.03;5022746;28;20449;-76
2023/05/29 10:18:55;;;;;;;6.63;5.33;;;;;;;23.26;47.10;157349.56;5006292;28;20970;-76
2023/05/29 10:21:22;;;;;;;5.70;5.10;;;;;;;23.27;45.66;157350.88;5006169;28;21019;-76
2023/05/29 10:23:50;;;;;;;5.57;4.80;;;;;;;23.12;45.82;157312.94;5006310;28;20960;-76
2023/05/29 10:26:21;;;;;;;6.17;5.20;;;;;;;22.95;44.34;157268.56;5005806;28;20445;-75
2023/05/29 10:28:52;;;;;;;6.57;5.10;;;;;;;22.93;45.68;157263.28;4990687;28;20823;-76
2023/05/29 10:31:23;;;;;;;7.20;5.50;;;;;;;23.14;44.83;157316.91;4986984;28;20962;-76
2023/05/29 10:34:03;;;;;;;6.10;5.47;;;;;;;23.68;43.89;157456.78;5002748;28;20438;-76
2023/05/29 10:36:33;;;;;;;7.70;5.33;;;;;;;23.80;43.70;157489.44;5002239;28;20434;-76
2023/05/29 10:39:00;;;;;;;6.63;4.77;;;;;;;23.74;42.85;157473.78;5002776;28;20455;-76
2023/05/29 10:41:32;;;;;;;4.63;4.20;;;;;;;23.55;42.81;157424.09;4986741;28;20489;-75
2023/05/29 10:44:00;;;;;;;4.43;4.03;;;;;;;23.62;43.45;157442.38;4986399;28;20541;-76
2023/05/29 10:47:05;;;;;;;5.53;4.93;;;;;;;23.42;40.09;157391.44;5003294;28;20453;-75
2023/05/29 10:49:34;;;;;;;6.53;4.27;;;;;;;23.57;40.25;157430.63;5001048;28;20449;-75
2023/05/29 10:52:01;;;;;;;6.63;4.60;;;;;;;23.59;40.63;157434.53;5037438;28;20952;-75
2023/05/29 10:54:28;;;;;;;4.53;4.13;;;;;;;23.58;41.11;157433.28;5010493;28;20495;-75
2023/05/29 10:56:56;;;;;;;4.47;4.00;;;;;;;23.63;41.00;157445.03;5008913;28;20433;-75
2023/05/29 10:59:26;;;;;;;6.50;4.70;;;;;;;23.45;40.85;157399.28;5001518;28;20806;-75
2023/05/29 11:01:53;;;;;;;5.60;4.50;;;;;;;23.51;40.87;157413.69;5021982;28;20426;-77
2023/05/29 11:04:41;;;;;;;5.13;4.27;;;;;;;23.77;40.50;157481.66;4994120;28;20458;-76
2023/05/29 11:07:08;;;;;;;7.27;4.00;;;;;;;23.57;39.90;157429.31;4964828;28;20453;-75
2023/05/29 11:09:37;;;;;;;4.67;4.20;;;;;;;23.53;39.92;157418.88;4988299;28;20485;-75
2023/05/29 11:15:03;;;;;;;8.20;4.57;;;;;;;23.71;40.67;157465.94;4988710;28;20458;-76
2023/05/29 11:17:31;;;;;;;9.10;4.70;;;;;;;23.87;38.98;157507.78;4988877;28;20839;-75
2023/05/29 11:20:03;;;;;;;6.43;4.10;;;;;;;23.77;37.88;157481.66;4990366;28;20888;-75
2023/05/29 11:22:53;;;;;;;6.63;3.90;;;;;;;23.49;37.94;157408.41;5009757;28;20425;-75
2023/05/29 11:25:21;;;;;;;5.20;4.57;;;;;;;23.58;37.57;157433.28;5024802;28;20448;-75
2023/05/29 11:27:48;;;;;;;5.03;4.53;;;;;;;23.55;37.51;157425.41;5009309;28;20511;-75
2023/05/29 11:30:15;;;;;;;8.00;4.63;;;;;;;23.53;38.98;157418.88;5010211;28;20479;-75
2023/05/29 11:32:43;;;;;;;4.53;3.83;;;;;;;23.37;39.31;157377.06;5009775;28;20544;-75